Time;durP1;ratioP1;P1;durP2;ratioP2;P2;SDS_P1;SDS_P2;PMS_P1;PMS_P2;Temp;Humidity;BMP_temperature;BMP_pressure;BME280_temperature;BME280_humidity;BME280_pressure;Samples;Min_cycle;Max_cycle;Signal;HPM_P1;HPM_P2
2023/07/22 00:00:58;;;;;;;1.20;1.10;;;14.60;99.90;;;;;;4982365;28;20654;-75
2023/07/22 00:03:25;;;;;;;1.60;1.43;;;14.70;99.90;;;;;;4981710;28;21223;-75
2023/07/22 00:06:04;;;;;;;2.43;1.90;;;14.60;99.90;;;;;;4981348;28;20656;-75
2023/07/22 00:08:33;;;;;;;1.83;1.70;;;14.60;99.90;;;;;;4978697;28;21249;-75
2023/07/22 00:11:00;;;;;;;2.07;1.90;;;14.50;99.90;;;;;;4980598;28;20661;-75
2023/07/22 00:13:29;;;;;;;2.00;1.60;;;14.40;99.90;;;;;;4982239;28;20618;-74
2023/07/22 00:15:56;;;;;;;2.13;1.50;;;14.40;99.90;;;;;;4976729;28;20750;-74
2023/07/22 00:18:24;;;;;;;2.00;1.80;;;14.40;99.90;;;;;;4981091;28;20619;-75
2023/07/22 00:20:51;;;;;;;1.40;1.30;;;14.50;99.90;;;;;;4978810;28;20658;-75
2023/07/22 00:23:19;;;;;;;1.53;1.43;;;14.50;99.90;;;;;;4979919;28;20846;-75
2023/07/22 00:25:46;;;;;;;1.67;1.57;;;14.50;99.90;;;;;;4979107;28;20673;-74
2023/07/22 00:28:13;;;;;;;1.63;1.53;;;14.50;99.90;;;;;;4982781;28;20678;-75
2023/07/22 00:30:41;;;;;;;1.53;1.43;;;14.20;99.90;;;;;;4975796;28;20662;-74
2023/07/22 00:33:08;;;;;;;1.90;1.73;;;14.30;99.90;;;;;;4974137;28;20635;-75
2023/07/22 00:35:35;;;;;;;1.10;1.10;;;14.30;99.90;;;;;;4975569;28;20649;-75
2023/07/22 00:38:03;;;;;;;1.60;1.50;;;14.20;99.90;;;;;;4985147;28;20627;-75
2023/07/22 00:40:31;;;;;;;2.33;2.13;;;14.10;99.90;;;;;;4980509;28;20634;-75
2023/07/22 00:42:59;;;;;;;1.57;1.47;;;14.30;99.90;;;;;;4979171;28;20661;-75
2023/07/22 00:45:26;;;;;;;1.73;1.63;;;14.20;99.90;;;;;;4979707;28;20657;-75
2023/07/22 00:47:54;;;;;;;1.83;1.73;;;14.10;99.90;;;;;;4979911;28;20673;-75
2023/07/22 00:50:22;;;;;;;3.37;2.10;;;14.00;99.90;;;;;;4978818;28;21310;-75
2023/07/22 00:52:49;;;;;;;1.93;1.43;;;14.00;99.90;;;;;;4977354;28;21237;-75
2023/07/22 00:55:16;;;;;;;2.10;1.90;;;14.10;99.90;;;;;;4977534;28;20648;-75
2023/07/22 00:57:42;;;;;;;1.60;1.50;;;14.20;99.90;;;;;;4979824;28;20617;-75
2023/07/22 01:00:11;;;;;;;1.40;1.30;;;14.00;99.90;;;;;;4979454;28;21209;-75
2023/07/22 01:02:38;;;;;;;1.53;1.43;;;14.00;99.90;;;;;;4978306;28;20626;-75
2023/07/22 01:05:08;;;;;;;1.80;1.67;;;13.90;99.90;;;;;;4983822;28;21220;-75
2023/07/22 01:07:36;;;;;;;3.10;2.03;;;13.90;99.90;;;;;;4977777;28;21026;-75
2023/07/22 01:10:05;;;;;;;3.73;1.87;;;13.90;99.90;;;;;;4975691;28;20622;-75
2023/07/22 01:12:33;;;;;;;1.67;1.57;;;13.90;99.90;;;;;;4978740;28;21035;-75
2023/07/22 01:15:01;;;;;;;1.40;1.30;;;13.90;99.90;;;;;;4973641;28;20629;-75
2023/07/22 01:17:29;;;;;;;1.87;1.67;;;13.90;99.90;;;;;;4980928;28;20733;-75
2023/07/22 01:19:58;;;;;;;2.00;1.80;;;13.90;99.90;;;;;;4977010;28;20639;-75
2023/07/22 01:22:29;;;;;;;1.50;1.40;;;14.00;99.90;;;;;;4977747;28;20654;-75
2023/07/22 01:24:59;;;;;;;1.83;1.70;;;13.90;99.90;;;;;;4983786;28;21020;-74
2023/07/22 01:27:27;;;;;;;3.10;2.13;;;13.80;99.90;;;;;;4984007;28;20672;-75
2023/07/22 01:29:56;;;;;;;1.70;1.53;;;13.80;99.90;;;;;;4985593;28;21284;-75
2023/07/22 01:32:23;;;;;;;1.87;1.63;;;13.80;99.90;;;;;;4973818;28;20668;-75
2023/07/22 01:34:50;;;;;;;1.50;1.40;;;13.80;99.90;;;;;;4976723;28;20638;-74
2023/07/22 01:37:19;;;;;;;2.30;1.80;;;13.70;99.90;;;;;;4975654;28;20657;-75
2023/07/22 01:39:46;;;;;;;1.97;1.77;;;13.80;99.90;;;;;;4979103;28;20633;-75
2023/07/22 01:42:15;;;;;;;2.43;1.50;;;13.80;99.90;;;;;;4975095;28;20653;-75
2023/07/22 01:44:42;;;;;;;2.00;1.80;;;13.80;99.90;;;;;;4976259;28;20634;-75
2023/07/22 01:47:10;;;;;;;1.70;1.60;;;13.80;99.90;;;;;;4981228;28;20780;-75
2023/07/22 01:49:36;;;;;;;2.37;2.17;;;13.70;99.90;;;;;;4974968;28;21250;-75
2023/07/22 01:52:05;;;;;;;2.93;1.87;;;13.60;99.90;;;;;;4976564;28;20733;-74
2023/07/22 01:54:33;;;;;;;2.33;2.13;;;13.70;99.90;;;;;;4981604;28;20641;-75
2023/07/22 01:57:01;;;;;;;1.60;1.50;;;13.80;99.90;;;;;;4975000;28;20731;-74
2023/07/22 01:59:32;;;;;;;1.80;1.70;;;13.90;99.90;;;;;;4976579;28;20640;-75
2023/07/22 02:02:00;;;;;;;2.07;1.90;;;14.00;99.90;;;;;;4977912;28;20669;-74
2023/07/22 02:04:27;;;;;;;1.87;1.77;;;13.90;99.90;;;;;;4978219;28;20688;-74
2023/07/22 02:06:55;;;;;;;2.70;2.23;;;14.00;99.90;;;;;;4982561;28;21056;-75
2023/07/22 02:09:23;;;;;;;2.53;2.27;;;14.00;99.90;;;;;;4976385;28;20745;-75
2023/07/22 02:11:51;;;;;;;2.03;1.90;;;13.90;99.90;;;;;;4977887;28;20701;-75
2023/07/22 02:14:18;;;;;;;4.30;2.23;;;13.80;99.90;;;;;;4978157;28;20629;-75
2023/07/22 02:16:47;;;;;;;6.70;2.60;;;13.90;99.90;;;;;;4980469;28;20662;-75
2023/07/22 02:19:16;;;;;;;1.90;1.70;;;13.70;99.90;;;;;;4981885;28;20729;-75
2023/07/22 02:21:43;;;;;;;1.80;1.70;;;13.70;99.90;;;;;;4976419;28;20690;-74
2023/07/22 02:24:11;;;;;;;2.37;1.50;;;13.60;99.90;;;;;;4987246;28;20630;-74
2023/07/22 02:26:38;;;;;;;1.53;1.43;;;13.60;99.90;;;;;;4977866;28;20692;-75
2023/07/22 02:29:05;;;;;;;1.90;1.67;;;13.60;99.90;;;;;;4978697;28;20708;-75
2023/07/22 02:31:31;;;;;;;2.53;2.20;;;13.60;99.90;;;;;;4982294;28;20661;-75
2023/07/22 02:34:00;;;;;;;1.90;1.80;;;13.50;99.90;;;;;;4977049;28;21271;-75
2023/07/22 02:36:27;;;;;;;2.13;1.87;;;13.50;99.90;;;;;;4980216;28;20729;-75
2023/07/22 02:38:55;;;;;;;1.90;1.60;;;13.40;99.90;;;;;;4982072;28;20629;-74
2023/07/22 02:41:22;;;;;;;1.77;1.67;;;13.40;99.90;;;;;;4979853;28;20657;-75
2023/07/22 02:43:50;;;;;;;1.00;0.93;;;13.40;99.90;;;;;;4979011;28;20741;-75
2023/07/22 02:46:17;;;;;;;1.70;1.60;;;13.40;99.90;;;;;;4981545;28;20646;-75
2023/07/22 02:48:45;;;;;;;3.83;2.07;;;13.40;99.90;;;;;;4979425;28;20669;-74
2023/07/22 02:51:14;;;;;;;1.80;1.40;;;13.40;99.90;;;;;;4978774;28;21027;-75
2023/07/22 02:53:42;;;;;;;2.20;1.73;;;13.30;99.90;;;;;;4982506;28;20633;-74
2023/07/22 02:56:11;;;;;;;1.93;1.80;;;13.30;99.90;;;;;;4985634;28;20704;-74
2023/07/22 02:58:38;;;;;;;2.53;2.00;;;13.30;99.90;;;;;;4979276;28;20627;-75
2023/07/22 03:01:08;;;;;;;1.73;1.60;;;13.30;99.90;;;;;;4971968;28;20662;-74
2023/07/22 03:03:35;;;;;;;1.87;1.77;;;13.20;99.90;;;;;;4984270;28;20622;-75
2023/07/22 03:06:04;;;;;;;1.70;1.60;;;13.30;99.90;;;;;;4982149;28;20664;-75
2023/07/22 03:08:32;;;;;;;2.07;1.53;;;13.30;99.90;;;;;;4981331;28;21045;-74
2023/07/22 03:11:00;;;;;;;2.47;2.27;;;13.10;99.90;;;;;;4981527;28;20692;-75
2023/07/22 03:13:29;;;;;;;2.67;2.17;;;13.00;99.90;;;;;;4983771;28;20693;-75
2023/07/22 03:15:58;;;;;;;3.63;1.77;;;13.00;99.90;;;;;;4977862;28;21012;-75
2023/07/22 03:18:25;;;;;;;1.90;1.80;;;13.00;99.90;;;;;;4982371;28;20633;-75
2023/07/22 03:20:53;;;;;;;1.63;1.40;;;13.00;99.90;;;;;;4979021;28;21262;-75
2023/07/22 03:23:21;;;;;;;1.20;1.20;;;13.10;99.90;;;;;;4983677;28;21241;-75
2023/07/22 03:25:49;;;;;;;2.30;2.07;;;13.10;99.90;;;;;;4975540;28;20749;-75
2023/07/22 03:28:17;;;;;;;2.10;1.60;;;13.00;99.90;;;;;;4979083;28;21181;-75
2023/07/22 03:30:45;;;;;;;1.63;1.53;;;13.00;99.90;;;;;;4976515;28;20654;-75
2023/07/22 03:33:14;;;;;;;2.30;1.70;;;13.00;99.90;;;;;;4978666;28;20637;-74
2023/07/22 03:35:43;;;;;;;1.60;1.50;;;13.00;99.90;;;;;;4981492;28;20657;-75
2023/07/22 03:38:10;;;;;;;1.50;1.40;;;13.00;99.90;;;;;;4979039;28;21197;-75
2023/07/22 03:40:38;;;;;;;2.50;1.80;;;12.90;99.90;;;;;;4983117;28;20659;-75
2023/07/22 03:43:07;;;;;;;2.37;2.17;;;12.80;99.90;;;;;;4973582;28;20642;-74
2023/07/22 03:45:39;;;;;;;2.03;1.83;;;12.80;99.90;;;;;;4978626;28;20696;-75
2023/07/22 03:48:06;;;;;;;2.07;1.87;;;12.80;99.90;;;;;;4980554;28;21288;-75
2023/07/22 03:50:33;;;;;;;2.83;2.20;;;12.90;99.90;;;;;;4976793;28;20657;-75
2023/07/22 03:52:59;;;;;;;1.77;1.67;;;13.00;99.90;;;;;;4979567;28;20725;-74
2023/07/22 03:55:26;;;;;;;2.20;2.10;;;12.90;99.90;;;;;;4991458;28;20662;-75
2023/07/22 03:57:53;;;;;;;2.00;1.47;;;12.80;99.90;;;;;;4981763;28;20656;-74
2023/07/22 04:00:22;;;;;;;2.00;1.80;;;12.80;99.90;;;;;;4981849;28;20626;-75
2023/07/22 04:02:49;;;;;;;1.63;1.50;;;12.90;99.90;;;;;;4978501;28;20629;-75
2023/07/22 04:05:15;;;;;;;2.10;1.53;;;12.80;99.90;;;;;;4977652;28;20626;-75
2023/07/22 04:07:42;;;;;;;2.50;2.30;;;12.80;99.90;;;;;;4983248;28;20630;-75
2023/07/22 04:10:09;;;;;;;2.57;2.10;;;12.80;99.90;;;;;;4977060;28;20629;-75
2023/07/22 04:12:36;;;;;;;2.30;1.70;;;12.90;99.90;;;;;;4979533;28;20641;-74
2023/07/22 04:15:03;;;;;;;1.87;1.67;;;13.00;99.90;;;;;;4977795;28;21174;-74
2023/07/22 04:17:31;;;;;;;3.10;2.77;;;13.00;99.90;;;;;;4977313;28;20646;-75
2023/07/22 04:19:58;;;;;;;1.80;1.47;;;13.10;99.90;;;;;;4977427;28;20631;-74
2023/07/22 04:22:24;;;;;;;2.13;1.63;;;13.20;99.90;;;;;;4983496;28;20664;-75
2023/07/22 04:24:51;;;;;;;2.30;1.60;;;13.20;99.90;;;;;;4985321;28;20987;-74
2023/07/22 04:27:19;;;;;;;1.67;1.57;;;13.30;99.90;;;;;;4982799;28;20664;-75
2023/07/22 04:29:46;;;;;;;2.00;1.80;;;13.30;99.90;;;;;;4982355;28;21302;-75
2023/07/22 04:32:13;;;;;;;3.60;2.07;;;13.30;99.90;;;;;;4979286;28;20646;-75
2023/07/22 04:34:41;;;;;;;1.67;1.57;;;13.40;99.90;;;;;;4983123;28;20636;-75
2023/07/22 04:37:08;;;;;;;2.20;1.83;;;13.30;99.90;;;;;;4978245;28;20665;-74
2023/07/22 04:39:35;;;;;;;3.20;2.20;;;13.40;99.90;;;;;;4977020;28;20629;-74
2023/07/22 04:42:02;;;;;;;1.50;1.40;;;13.60;99.90;;;;;;4978545;28;20646;-75
2023/07/22 04:44:28;;;;;;;1.93;1.83;;;13.60;99.90;;;;;;4980457;28;20626;-75
2023/07/22 04:46:55;;;;;;;2.73;1.80;;;13.80;99.90;;;;;;4972813;28;21012;-74
2023/07/22 04:49:22;;;;;;;2.10;1.90;;;13.80;99.90;;;;;;4981995;28;20676;-75
2023/07/22 04:51:50;;;;;;;3.07;2.10;;;13.90;99.90;;;;;;4980494;28;20657;-75
2023/07/22 04:54:18;;;;;;;1.27;1.20;;;13.80;99.90;;;;;;4979439;28;21030;-75
2023/07/22 04:56:44;;;;;;;1.90;1.60;;;13.80;99.90;;;;;;4986442;28;20995;-74
2023/07/22 04:59:13;;;;;;;1.50;1.40;;;13.90;99.90;;;;;;4979344;28;20642;-74
2023/07/22 05:01:40;;;;;;;1.90;1.80;;;14.00;99.90;;;;;;4976787;28;21639;-75
2023/07/22 05:04:07;;;;;;;2.33;1.73;;;14.10;99.90;;;;;;4978088;28;20641;-75
2023/07/22 05:06:34;;;;;;;1.47;1.10;;;14.10;99.90;;;;;;4978152;28;20657;-74
2023/07/22 05:09:03;;;;;;;2.00;1.70;;;14.00;99.90;;;;;;4977238;28;20796;-75
2023/07/22 05:11:29;;;;;;;3.00;2.33;;;14.00;99.90;;;;;;4977478;28;20680;-74
2023/07/22 05:13:56;;;;;;;1.80;1.70;;;14.10;99.90;;;;;;4980553;28;20634;-75
2023/07/22 05:16:23;;;;;;;1.80;1.47;;;14.10;99.90;;;;;;4975058;28;20656;-75
2023/07/22 05:18:50;;;;;;;2.07;1.90;;;14.20;99.90;;;;;;4979342;28;21198;-75
2023/07/22 05:21:17;;;;;;;1.53;1.43;;;14.20;99.90;;;;;;4979119;28;21071;-75
2023/07/22 05:23:43;;;;;;;1.63;1.53;;;14.30;99.90;;;;;;4979865;28;20744;-74
2023/07/22 05:26:12;;;;;;;2.13;1.93;;;14.40;99.90;;;;;;4979717;28;21214;-75
2023/07/22 05:28:38;;;;;;;2.00;1.90;;;14.50;99.90;;;;;;4979035;28;20666;-75
2023/07/22 05:31:06;;;;;;;2.30;1.97;;;14.70;99.90;;;;;;4975103;28;21225;-75
2023/07/22 05:33:33;;;;;;;2.20;2.07;;;14.70;99.90;;;;;;4976055;28;21229;-75
2023/07/22 05:36:00;;;;;;;1.50;1.40;;;14.80;99.90;;;;;;4975182;28;20676;-74
2023/07/22 05:38:26;;;;;;;2.07;1.87;;;14.80;99.90;;;;;;4979452;28;20629;-74
2023/07/22 05:40:54;;;;;;;1.80;1.70;;;14.90;99.90;;;;;;4977980;28;20653;-75
2023/07/22 05:43:22;;;;;;;2.30;2.10;;;15.00;99.90;;;;;;4973969;28;20784;-75
2023/07/22 05:45:49;;;;;;;2.03;1.70;;;15.00;99.90;;;;;;4979446;28;20669;-74
2023/07/22 05:48:16;;;;;;;1.20;1.20;;;15.20;99.90;;;;;;4977746;28;20732;-75
2023/07/22 05:50:43;;;;;;;2.30;2.10;;;15.30;99.90;;;;;;4978291;28;20657;-74
2023/07/22 05:53:10;;;;;;;2.17;1.60;;;15.40;99.90;;;;;;4980071;28;21205;-75
2023/07/22 05:55:37;;;;;;;2.33;1.77;;;15.50;99.90;;;;;;4978756;28;21051;-75
2023/07/22 05:58:06;;;;;;;1.93;1.70;;;15.70;99.80;;;;;;4980217;28;20635;-79
2023/07/22 06:00:34;;;;;;;1.67;1.57;;;15.80;99.40;;;;;;4981633;28;20662;-78
2023/07/22 06:03:01;;;;;;;1.77;1.67;;;15.90;99.00;;;;;;4981972;28;21181;-78
2023/07/22 06:05:27;;;;;;;1.47;1.20;;;15.90;99.00;;;;;;4981113;28;20664;-78
2023/07/22 06:07:57;;;;;;;1.80;1.53;;;16.00;98.80;;;;;;4984286;28;21044;-77
2023/07/22 06:10:23;;;;;;;1.90;1.70;;;16.10;98.40;;;;;;4974437;28;20830;-78
2023/07/22 06:12:50;;;;;;;1.53;1.43;;;16.20;98.40;;;;;;4983798;28;20636;-78
2023/07/22 06:15:17;;;;;;;1.83;1.67;;;16.30;98.50;;;;;;4978366;28;20626;-78
2023/07/22 06:17:45;;;;;;;3.27;1.97;;;16.30;98.20;;;;;;4985842;28;20664;-78
2023/07/22 06:20:12;;;;;;;2.53;1.60;;;16.40;98.10;;;;;;4983316;28;20630;-78
2023/07/22 06:22:39;;;;;;;2.00;1.67;;;16.40;97.90;;;;;;4980642;28;20648;-78
2023/07/22 06:25:07;;;;;;;4.60;1.90;;;16.50;97.90;;;;;;4979377;28;20630;-78
2023/07/22 06:27:34;;;;;;;2.00;1.87;;;16.70;97.80;;;;;;4981941;28;21220;-78
2023/07/22 06:30:01;;;;;;;2.00;1.73;;;16.80;97.30;;;;;;4980495;28;20672;-78
2023/07/22 06:32:29;;;;;;;1.97;1.87;;;16.80;97.10;;;;;;4981171;28;20673;-78
2023/07/22 06:34:58;;;;;;;2.00;1.90;;;16.90;97.80;;;;;;4977643;28;20626;-78
2023/07/22 06:37:25;;;;;;;1.57;1.47;;;17.10;97.80;;;;;;4980909;28;20701;-78
2023/07/22 06:39:51;;;;;;;2.03;1.80;;;17.20;97.60;;;;;;4982040;28;20732;-78
2023/07/22 06:42:18;;;;;;;1.80;1.70;;;17.20;96.90;;;;;;4978956;28;20657;-78
2023/07/22 06:44:45;;;;;;;2.13;1.93;;;17.30;97.00;;;;;;4981154;28;20630;-78
2023/07/22 06:47:12;;;;;;;3.10;1.83;;;17.40;97.00;;;;;;4979059;28;21115;-78
2023/07/22 06:49:39;;;;;;;1.50;1.40;;;17.60;97.10;;;;;;4984711;28;21031;-78
2023/07/22 06:52:08;;;;;;;1.83;1.73;;;17.70;96.90;;;;;;4980556;28;20666;-78
2023/07/22 06:54:35;;;;;;;1.70;1.40;;;17.80;96.40;;;;;;4979876;28;20675;-78
2023/07/22 06:57:02;;;;;;;1.53;1.43;;;18.00;95.60;;;;;;4981137;28;20646;-78
2023/07/22 06:59:29;;;;;;;3.10;2.10;;;18.00;95.30;;;;;;4979876;28;20625;-76
2023/07/22 07:01:59;;;;;;;1.93;1.53;;;18.10;95.40;;;;;;4979622;28;20699;-89
2023/07/22 07:04:25;;;;;;;2.10;1.60;;;18.10;94.70;;;;;;4977956;28;20630;-81
2023/07/22 07:06:52;;;;;;;2.00;1.80;;;18.40;95.00;;;;;;4984445;28;20857;-82
2023/07/22 07:09:20;;;;;;;4.13;1.63;;;18.40;94.90;;;;;;4984103;28;20998;-82
2023/07/22 07:11:47;;;;;;;2.17;1.50;;;18.40;94.60;;;;;;4975873;28;20661;-75
2023/07/22 07:14:14;;;;;;;2.03;1.73;;;18.50;94.70;;;;;;4979263;28;20629;-75
2023/07/22 07:16:42;;;;;;;1.70;1.50;;;18.60;94.90;;;;;;4981716;28;20756;-75
2023/07/22 07:19:08;;;;;;;2.00;1.80;;;18.70;94.40;;;;;;4983735;28;21210;-75
2023/07/22 07:21:35;;;;;;;3.30;1.90;;;18.80;93.90;;;;;;4979187;28;20750;-76
2023/07/22 07:24:02;;;;;;;1.90;1.80;;;19.00;92.40;;;;;;4985241;28;20641;-76
2023/07/22 07:26:30;;;;;;;1.63;1.50;;;19.20;92.20;;;;;;4977964;28;20784;-75
2023/07/22 07:28:57;;;;;;;1.70;1.60;;;19.20;92.40;;;;;;4979996;28;20666;-75
2023/07/22 07:31:24;;;;;;;1.53;1.43;;;19.20;91.80;;;;;;4981831;28;20716;-76
2023/07/22 07:33:51;;;;;;;1.77;1.57;;;19.30;91.00;;;;;;4985482;28;20679;-76
2023/07/22 07:36:18;;;;;;;2.30;1.67;;;19.30;90.90;;;;;;4975302;28;20650;-76
2023/07/22 07:38:45;;;;;;;1.67;1.57;;;19.60;91.10;;;;;;4978372;28;20730;-75
2023/07/22 07:41:12;;;;;;;1.53;1.30;;;19.80;91.50;;;;;;4986703;28;20659;-76
2023/07/22 07:43:41;;;;;;;4.20;1.87;;;19.80;88.90;;;;;;4981283;28;20625;-76
2023/07/22 07:46:18;;;;;;;1.43;1.33;;;19.90;89.90;;;;;;4973286;28;21082;-76
2023/07/22 07:48:46;;;;;;;1.00;1.00;;;20.00;90.20;;;;;;4981059;28;20633;-76
2023/07/22 07:51:14;;;;;;;0.97;0.97;;;20.30;88.80;;;;;;4976636;28;20661;-76
2023/07/22 07:53:41;;;;;;;1.33;1.10;;;20.30;86.30;;;;;;4984079;28;20625;-76
2023/07/22 07:56:09;;;;;;;1.87;1.73;;;20.30;87.70;;;;;;4984779;28;21198;-76
2023/07/22 07:58:36;;;;;;;1.70;1.57;;;20.30;86.70;;;;;;4978125;28;20627;-76
2023/07/22 08:01:05;;;;;;;1.50;1.30;;;20.50;87.50;;;;;;4975480;28;20662;-76
2023/07/22 08:03:32;;;;;;;1.40;1.30;;;20.50;86.90;;;;;;4976684;28;20636;-75
2023/07/22 08:05:59;;;;;;;2.00;1.80;;;20.70;87.80;;;;;;4982777;28;20785;-76
2023/07/22 08:08:25;;;;;;;1.93;1.40;;;20.60;84.60;;;;;;4979774;28;20630;-76
2023/07/22 08:11:00;;;;;;;1.40;1.30;;;20.60;86.10;;;;;;4980213;28;20688;-76
2023/07/22 08:13:29;;;;;;;1.80;1.57;;;20.70;81.90;;;;;;4982285;28;20625;-76
2023/07/22 08:15:56;;;;;;;1.53;1.43;;;20.80;82.00;;;;;;4977409;28;20657;-76
2023/07/22 08:18:24;;;;;;;1.67;1.53;;;20.80;80.80;;;;;;4978276;28;20688;-76
2023/07/22 08:20:52;;;;;;;1.83;1.60;;;21.00;82.00;;;;;;4980161;28;20657;-76
2023/07/22 08:23:19;;;;;;;7.03;1.50;;;21.00;81.50;;;;;;4980945;28;20744;-75
2023/07/22 08:25:46;;;;;;;1.90;1.60;;;21.00;80.70;;;;;;4981572;28;20659;-75
2023/07/22 08:28:12;;;;;;;1.37;1.17;;;21.10;77.60;;;;;;4980891;28;20993;-75
2023/07/22 08:30:40;;;;;;;1.20;1.20;;;21.20;77.00;;;;;;4974652;28;20697;-76
2023/07/22 08:33:07;;;;;;;1.20;1.10;;;21.20;76.50;;;;;;4977334;28;20635;-75
2023/07/22 08:35:36;;;;;;;1.30;1.20;;;21.30;75.10;;;;;;4975649;28;20724;-76
2023/07/22 08:38:03;;;;;;;1.20;1.10;;;21.40;74.90;;;;;;4977869;28;20637;-76
2023/07/22 08:40:35;;;;;;;1.67;1.57;;;21.40;77.10;;;;;;4976945;28;20657;-76
2023/07/22 08:43:03;;;;;;;2.40;1.60;;;21.70;78.00;;;;;;4978264;28;20636;-76
2023/07/22 08:45:34;;;;;;;2.03;1.73;;;21.70;74.20;;;;;;4978113;28;20657;-75
2023/07/22 08:48:04;;;;;;;1.70;1.60;;;21.90;74.50;;;;;;4977553;28;20652;-76
2023/07/22 08:50:35;;;;;;;1.77;1.50;;;22.10;72.70;;;;;;4977660;28;20660;-76
2023/07/22 08:53:05;;;;;;;1.67;1.57;;;22.40;73.40;;;;;;4977300;28;20630;-76
2023/07/22 08:55:31;;;;;;;1.07;1.00;;;22.60;70.70;;;;;;4977106;28;20689;-76
2023/07/22 08:57:59;;;;;;;1.77;1.67;;;22.40;66.80;;;;;;4978517;28;20983;-76
2023/07/22 09:00:28;;;;;;;1.23;1.13;;;22.60;70.40;;;;;;4980144;28;20654;-74
2023/07/22 09:02:55;;;;;;;1.67;1.57;;;22.80;67.50;;;;;;4977268;28;21208;-78
2023/07/22 09:05:22;;;;;;;2.33;1.30;;;23.20;69.00;;;;;;4978541;28;20636;-77
2023/07/22 09:07:50;;;;;;;1.50;1.40;;;23.10;59.50;;;;;;4975312;28;20641;-78
2023/07/22 09:10:19;;;;;;;3.13;1.23;;;22.80;61.20;;;;;;4977325;28;20668;-77
2023/07/22 09:12:46;;;;;;;1.70;1.57;;;22.70;63.20;;;;;;4979180;28;20633;-78
2023/07/22 09:15:13;;;;;;;1.47;1.37;;;22.40;61.10;;;;;;4978028;28;20638;-78
2023/07/22 09:17:41;;;;;;;1.27;1.17;;;22.30;62.50;;;;;;4977349;28;20639;-78
2023/07/22 09:20:09;;;;;;;1.27;1.17;;;22.10;61.40;;;;;;4977628;28;20982;-78
2023/07/22 09:22:36;;;;;;;1.27;1.17;;;22.00;63.20;;;;;;4978438;28;20631;-78
2023/07/22 09:25:16;;;;;;;1.20;1.10;;;22.10;62.30;;;;;;4979671;28;20634;-78
2023/07/22 09:27:45;;;;;;;2.20;1.30;;;22.00;61.20;;;;;;4977937;28;20636;-79
2023/07/22 09:30:27;;;;;;;1.77;1.67;;;21.80;61.30;;;;;;4976137;28;20675;-78
2023/07/22 09:32:55;;;;;;;1.17;1.07;;;21.70;61.80;;;;;;4975931;28;20641;-78
2023/07/22 09:35:23;;;;;;;1.70;1.00;;;21.60;61.60;;;;;;4977836;28;20637;-78
2023/07/22 09:37:49;;;;;;;0.90;0.90;;;21.50;62.90;;;;;;4975230;28;20672;-78
2023/07/22 09:40:18;;;;;;;1.40;1.30;;;21.70;63.80;;;;;;4977973;28;20629;-78
2023/07/22 09:42:48;;;;;;;1.43;1.33;;;22.00;63.40;;;;;;4980314;28;20737;-79
2023/07/22 09:45:15;;;;;;;1.97;1.50;;;22.20;65.20;;;;;;4973179;28;20633;-78
2023/07/22 09:47:43;;;;;;;6.13;1.30;;;22.20;62.90;;;;;;4973896;28;20936;-78
2023/07/22 09:50:15;;;;;;;1.27;1.17;;;22.30;63.50;;;;;;4977794;28;20676;-79
2023/07/22 09:52:48;;;;;;;1.83;1.40;;;22.30;62.60;;;;;;4982166;28;20669;-78
2023/07/22 09:55:17;;;;;;;2.40;1.47;;;22.50;65.70;;;;;;4974889;28;20649;-78
2023/07/22 09:57:47;;;;;;;1.33;1.23;;;22.50;59.80;;;;;;4978851;28;20632;-78
2023/07/22 10:00:16;;;;;;;1.23;1.13;;;22.70;62.60;;;;;;4976673;28;20637;-78
2023/07/22 10:02:44;;;;;;;2.63;1.37;;;22.70;59.00;;;;;;4982737;28;20634;-78
2023/07/22 10:05:16;;;;;;;1.93;1.50;;;22.60;59.50;;;;;;4974226;28;21001;-78
2023/07/22 10:07:46;;;;;;;6.93;1.77;;;22.40;59.70;;;;;;4974900;28;20633;-78
2023/07/22 10:10:14;;;;;;;1.37;1.17;;;22.50;64.40;;;;;;4981716;28;20680;-78
2023/07/22 10:12:42;;;;;;;0.90;0.90;;;22.80;58.80;;;;;;4974797;28;20626;-78
2023/07/22 10:15:11;;;;;;;0.97;0.93;;;23.00;58.70;;;;;;4979437;28;20625;-78
2023/07/22 10:17:38;;;;;;;0.80;0.80;;;22.90;56.60;;;;;;4977622;28;20634;-78
2023/07/22 10:20:07;;;;;;;1.67;1.57;;;22.80;58.30;;;;;;4977637;28;20642;-78
2023/07/22 10:22:36;;;;;;;1.07;1.07;;;23.00;57.10;;;;;;4974035;28;20780;-78
2023/07/22 10:25:06;;;;;;;1.20;1.10;;;22.70;56.50;;;;;;4981393;28;20697;-76
2023/07/22 10:27:33;;;;;;;1.50;1.40;;;22.80;58.90;;;;;;4980564;28;20641;-78
2023/07/22 10:30:00;;;;;;;1.20;1.10;;;23.00;59.00;;;;;;4977713;28;20760;-77
2023/07/22 10:32:35;;;;;;;0.90;0.70;;;23.20;59.50;;;;;;4976155;28;20660;-77
2023/07/22 10:35:03;;;;;;;1.10;1.00;;;23.20;58.10;;;;;;4978525;28;20640;-75
2023/07/22 10:37:33;;;;;;;1.30;1.10;;;23.40;58.20;;;;;;4975698;28;20638;-75
2023/07/22 10:40:02;;;;;;;1.37;1.27;;;23.50;58.80;;;;;;4980385;28;20623;-75
2023/07/22 10:42:32;;;;;;;2.27;1.30;;;23.80;59.20;;;;;;4978940;28;20700;-75
2023/07/22 10:45:01;;;;;;;1.30;1.20;;;24.00;58.70;;;;;;4982088;28;20642;-75
2023/07/22 10:47:36;;;;;;;1.53;1.37;;;23.80;57.70;;;;;;4978365;28;20647;-76
2023/07/22 10:50:09;;;;;;;1.10;1.10;;;23.90;58.80;;;;;;4979333;28;20652;-75
2023/07/22 10:52:42;;;;;;;1.57;1.47;;;23.90;59.30;;;;;;4986965;28;20631;-75
2023/07/22 10:55:16;;;;;;;2.00;1.27;;;23.70;58.20;;;;;;4981293;28;20970;-75
2023/07/22 10:57:50;;;;;;;1.60;1.50;;;23.80;59.90;;;;;;4979501;28;20627;-75
2023/07/22 11:00:21;;;;;;;1.37;1.20;;;23.60;59.70;;;;;;4980987;28;20641;-76
2023/07/22 11:03:10;;;;;;;1.00;1.00;;;23.30;58.20;;;;;;4980348;28;20644;-75
2023/07/22 11:05:51;;;;;;;1.23;1.13;;;23.10;58.80;;;;;;4981540;28;20662;-75
2023/07/22 11:08:18;;;;;;;1.60;1.37;;;23.10;60.10;;;;;;4979338;28;20945;-79
2023/07/22 11:10:55;;;;;;;1.17;1.07;;;23.40;60.10;;;;;;4986091;28;20688;-76
2023/07/22 11:13:29;;;;;;;1.27;1.13;;;23.80;59.40;;;;;;4984579;28;20954;-77
2023/07/22 11:15:59;;;;;;;1.50;1.27;;;23.90;57.20;;;;;;4981509;28;20660;-76
2023/07/22 11:18:38;;;;;;;3.30;1.63;;;23.80;59.70;;;;;;4980951;28;20632;-76
2023/07/22 11:21:09;;;;;;;1.30;1.00;;;23.70;57.70;;;;;;4979953;28;20652;-77
2023/07/22 11:23:36;;;;;;;1.20;1.10;;;23.30;56.20;;;;;;4981336;28;20637;-77
2023/07/22 11:26:03;;;;;;;1.87;1.30;;;23.30;58.40;;;;;;4977724;28;20659;-76
2023/07/22 11:28:31;;;;;;;1.90;1.40;;;23.40;58.90;;;;;;4983876;28;20681;-76
2023/07/22 11:30:58;;;;;;;1.70;1.40;;;23.40;57.70;;;;;;4980367;28;20686;-76
2023/07/22 11:33:25;;;;;;;2.20;1.50;;;23.60;58.20;;;;;;4980781;28;21152;-76
2023/07/22 11:35:53;;;;;;;1.87;1.73;;;24.20;61.00;;;;;;4975768;28;20660;-77
2023/07/22 11:38:20;;;;;;;1.73;1.60;;;25.00;58.40;;;;;;4978540;28;20640;-76
2023/07/22 11:40:48;;;;;;;1.40;1.20;;;25.30;59.30;;;;;;4975870;28;20664;-76
2023/07/22 11:43:15;;;;;;;1.47;1.37;;;25.80;58.30;;;;;;4980853;28;20648;-75
2023/07/22 11:45:42;;;;;;;1.73;1.63;;;26.30;57.30;;;;;;4978149;28;21021;-75
2023/07/22 11:48:13;;;;;;;1.20;1.10;;;27.00;56.80;;;;;;4980371;28;21209;-75
2023/07/22 11:50:40;;;;;;;1.80;1.37;;;27.60;55.50;;;;;;4977459;28;21169;-75
2023/07/22 11:53:09;;;;;;;2.00;1.57;;;27.90;52.20;;;;;;4981318;28;20993;-74
2023/07/22 11:55:37;;;;;;;1.60;1.20;;;28.20;52.60;;;;;;4984114;28;20684;-75
2023/07/22 11:58:04;;;;;;;1.60;1.50;;;28.60;53.20;;;;;;4980964;28;20717;-75
2023/07/22 12:00:31;;;;;;;1.50;1.27;;;29.30;52.90;;;;;;4978897;28;20653;-75
2023/07/22 12:02:58;;;;;;;1.47;1.33;;;29.70;50.00;;;;;;4980053;28;20629;-75
2023/07/22 12:05:25;;;;;;;1.50;1.40;;;29.60;48.30;;;;;;4977703;28;21133;-74
2023/07/22 12:07:52;;;;;;;0.93;0.93;;;30.40;50.20;;;;;;4980768;28;20212;-75
2023/07/22 12:10:20;;;;;;;1.33;1.20;;;31.10;48.10;;;;;;4980434;28;20852;-75
2023/07/22 12:12:49;;;;;;;1.20;1.10;;;31.70;45.20;;;;;;4981610;28;20617;-75
2023/07/22 12:15:17;;;;;;;1.20;1.20;;;32.00;44.80;;;;;;4978345;28;20630;-77
2023/07/22 12:17:48;;;;;;;1.33;1.07;;;32.50;48.00;;;;;;4973356;28;20748;-75
2023/07/22 12:20:15;;;;;;;1.73;1.07;;;33.70;43.70;;;;;;4982720;28;20972;-75
2023/07/22 12:22:42;;;;;;;1.30;1.20;;;33.60;43.40;;;;;;4980161;28;21173;-75
2023/07/22 12:25:10;;;;;;;1.37;1.27;;;33.70;43.80;;;;;;4978142;28;20728;-73
2023/07/22 12:27:38;;;;;;;2.00;1.50;;;32.10;41.10;;;;;;4976977;28;21209;-73
2023/07/22 12:30:06;;;;;;;1.63;1.47;;;30.80;43.10;;;;;;4978033;28;20652;-73
2023/07/22 12:32:33;;;;;;;1.30;1.20;;;29.40;45.60;;;;;;4983331;28;20632;-73
2023/07/22 12:35:00;;;;;;;1.20;1.10;;;30.50;47.40;;;;;;4979985;28;20652;-74
2023/07/22 12:37:28;;;;;;;1.67;1.57;;;31.90;43.90;;;;;;4981050;28;20723;-74
2023/07/22 12:39:55;;;;;;;1.17;1.07;;;32.40;43.20;;;;;;4976209;28;20637;-73
2023/07/22 12:42:21;;;;;;;1.87;1.30;;;30.70;42.50;;;;;;4980957;28;20645;-73
2023/07/22 12:44:49;;;;;;;1.07;1.00;;;30.50;44.10;;;;;;4980826;28;20630;-74
2023/07/22 12:47:16;;;;;;;4.03;1.83;;;31.50;44.80;;;;;;4977918;28;21220;-73
2023/07/22 12:49:43;;;;;;;1.50;1.40;;;32.90;44.60;;;;;;4978606;28;20622;-73
2023/07/22 12:52:11;;;;;;;1.40;1.30;;;33.60;41.20;;;;;;4976626;28;20673;-73